默认 日期 大小 文件数 浏览量 最新下载 xml
planet磁力链接相关资源由用户搜索指令自动获取,结果来源于网络,本站不存储任何资料,亦不承担任何责任,请于24小时内删除,搜索到26015个磁力,显示前4000条数据,用时5ms。
    ... ": 13550169, "Treasure Planet.cue": 3400, "Treasure Planet.jpg": 152900, "Treasure Planet.log": 15145 ...
创建时间: 2018-12-21 00:35:32 大小:292.86 MB 文件数量:20 热度:8 最近下载:2025-01-05 15:01:52
    {"RARBG.txt": 31, "Planet.Terror.2007.1080p.BluRay.x264.DTS-FGT.mkv": 16258469295, "Planet.Terror.2007.1080p.BluRay.x264.DTS-FGT.nfo": 5841}
创建时间: 2018-12-21 00:39:07 大小:15.14 GB 文件数量:3 热度:26 最近下载:2025-01-09 06:24:02
    ... ֲ�����].Planet.Terror.UNRATED.2007.720p.x264 ... ֲ�����].Planet.Terror.UNRATED.2007.720p.x264 ...
创建时间: 2018-12-21 00:40:33 大小:4.36 GB 文件数量:8 热度:12 最近下载:2025-01-06 14:01:47
    ... Generator.flac": 44344680, "06. Blue Planet Corporation - Psychonaut.flac": 67637738, " ... 05. Blue Planet Corporation - Juno Satellite.flac": 59000279 ... Telekinetic.flac": 58067419, "10. Blue Planet Corporation - Cyclothymic.flac": 70861612, " ...
创建时间: 2018-12-21 00:42:22 大小:1004.87 MB 文件数量:40 热度:9 最近下载:2024-12-04 13:26:01
    ... ": 84, "the.strange.world.of.planet.x.1958.pdtv.x264-regret ... ": 629991637, "the.strange.world.of.planet.x.1958.pdtv.x264-regret ...
创建时间: 2018-12-21 00:43:12 大小:602.5 MB 文件数量:7 热度:10 最近下载:2025-01-06 06:35:02
    {"Sample": {"sample.avi": 21760000}, "Final.Days.Of.Planet.Earth.2006.BRRip.XviD.Dual-TBO.avi": 1968039936, "Final.Days.Of.Planet.Earth.2006.BRRip.XviD.Dual-TBO.nfo": 2511}
创建时间: 2018-12-21 00:49:34 大小:1.85 GB 文件数量:3 热度:6 最近下载:2025-01-14 15:54:07
    ... , "Crazyhd.txt": 94, "Treasure.Planet.2002.1080p.BluRay.H264.AAC ... -RARBG.mp4": 1953744594, "Treasure.Planet.2002.1080p.BluRay.H264.AAC ... 792.jpg": 143239, "Treasure.Planet.2002.1080p.BluRay.H264.AAC ... 250.jpg": 264434, "Treasure.Planet.2002.1080p.BluRay.H264.AAC ...
创建时间: 2018-12-21 00:51:02 大小:1.82 GB 文件数量:13 热度:11 最近下载:2025-01-08 18:17:02
    {"More Hentai Torrents.txt": 34, "Cold Planet, Hot Encounters 60FPS.mp4": 518112748}
创建时间: 2018-12-21 00:59:27 大小:494.11 MB 文件数量:2 热度:7 最近下载:2025-01-05 04:01:40
    {"info.nfo": 1304, "commentary.m4a": 102209587, "Planet of the Apes 2001 BDRemux 1080p MPEG-2 DTS-HighCode.mkv": 16554760205}
创建时间: 2018-12-21 01:12:31 大小:15.51 GB 文件数量:3 热度:11 最近下载:2024-07-15 01:01:31
    ... ": 6664149, "Various - Wild Planet.cue": 1860, "Various - Wild Planet.log": 3934, "VA_ ... -_Wild_Planet_front.jpg": 15240002, "Various - Wild Planet.flac": 535699323, "VA_-_Wild_Planet_front_in.jpg ...
创建时间: 2018-12-21 01:12:32 大小:583.28 MB 文件数量:10 热度:10 最近下载:2025-01-06 21:02:02
    ... , "01 The Face Of The Planet - Original Mix.mp3": 10132119, "05 ... The Face Of The Planet - Clouds Remix.mp3": 11793084, "03 ... The Face Of The Planet - Gtronic Remix.mp3": 11490488, "08 ... The Face Of The Planet - Parametic Remix.mp3": 8868831, "06 ...
创建时间: 2018-12-21 01:12:48 大小:93 MB 文件数量:8 热度:9 最近下载:2025-08-07 05:31:04
    {"10th Planet All Stars Bonus.avi": 236259604, "10th Planet All Stars Disk 1.avi": 296818506}
创建时间: 2018-12-21 01:13:04 大小:508.38 MB 文件数量:2 热度:8 最近下载:2025-09-17 07:51:06
    ... .flac": 50584875, "01 - Leaving This Planet.flac": 54356108, "10 - Never Ending ... ": 50330632, "Charles Earland - Leaving This Planet.cue": 1730, "Charles Earland - Leaving ...
创建时间: 2018-12-21 01:31:14 大小:686.7 MB 文件数量:25 热度:11 最近下载:2025-01-19 13:46:02
    {"COVER.jpg": 775100, "ReadMe.txt": 454, "Screenshots": {"1.JPG": 91271, "2.jpg": 244187, "3.jpg": 4147898, "4.jpg": 339354, "ReadMe.txt": 454}, "Lost.Planet.2 - PS3.rar": 3699376231}
创建时间: 2018-12-21 01:38:19 大小:3.45 GB 文件数量:8 热度:8 最近下载:2024-11-25 12:53:02
    ... Warp Brothers Live Mix @ Dance Planet Vol 3.cue": 2203, "Various ... Warp Brothers Live Mix @ Dance Planet Vol 3.mp3": 177919082}
创建时间: 2018-12-21 01:48:23 大小:178.44 MB 文件数量:9 热度:14 最近下载:2025-08-07 01:10:03
    ... by H33T.txt": 19, "Frozen Planet information.nfo": 2693, "tracked By ... }, "Cover & Label": {"Frozen Planet cd.jpg": 64205, "Frozen Planet front.jpg": 72370}}
创建时间: 2018-12-21 02:00:15 大小:4.36 GB 文件数量:28 热度:9 最近下载:2025-02-24 21:08:01
    ... , "JAY GRAYDON - Airplay For The Planet (1993 Cover).jpg": 57570, "JAY ... GRAYDON - Airplay For The Planet (2002 Cover).jpg": 37733}
创建时间: 2018-12-21 02:11:22 大小:119.1 MB 文件数量:13 热度:10 最近下载:2025-01-07 09:51:01
    {"read me.txt": 128, "Rise.of.the.Planet.of.the.Apes.2011.BRRip.x264-Biz .mkv": 574070178}
创建时间: 2018-12-21 02:43:03 大小:547.48 MB 文件数量:2 热度:7 最近下载:2025-01-09 04:26:03
    {"Setup.exe": 15443790, "Setup.nfo": 1004, "ReadMe.inf": 1072, "Torrent downloaded from H33t.to.txt": 52}
创建时间: 2018-12-21 02:58:33 大小:14.73 MB 文件数量:4 热度:8 最近下载:2025-01-08 12:49:03
    ... 82878750, "07 Anthony Crowther - Captain Planet.flac": 89394529, "06 Anthony Crowther ... Earth].flac.sfk": 537704}, "Captain Planet FLAC CD": {"captainplanet-amigacover.png ... 21431820, "07 Anthony Crowther - Captain Planet.flac": 23946098}, "The 16bit Audiophile ...
创建时间: 2018-12-21 03:02:31 大小:709.48 MB 文件数量:18 热度:6 最近下载:2025-01-06 13:33:04